Pagrindinis puslapis
METAR-TAF:

METAR-TAF

Oro uostai :

Jämsä, Suomija

platuma: 61-51N, ilguma: 024-48E, Aukštis: 143 m

Dabartinis oras

Ataskaita buvo paskelbta 25 minutes, ne 12:20 UTC
Vėjas 8 kt iš Šiaurės/Šiaurės Vakarų
Temperatūra -11°C
Drėgmė 92%
Slėgis 983 hPa
Matomumas 10 km arba daugiau
Su prošvaistėmis ne aukštis 1300 ft

METAR: EFHA 301220Z AUTO 33008KT 9999 BKN013 M11/M12 Q0983

Laikas: 14:45 (12:45 UTC)

Prognozė

Ataskaita buvo paskelbta 1 valandą ir 8 minutes, ne 11:37 UTC
Prognozė galioja nuo 30 metu 12 UTC su 30 metu 15 UTC
Vėjas 8 kt iš Šiaurės/Šiaurės Vakarų
Matomumas 10 km arba daugiau
Su prošvaistėmis ne aukštis 1500 ft
Tikimybė 40% :
Laikinai
nuo 30 metu 12 UTC su 30 metu 15 UTC
Su prošvaistėmis ne aukštis 1000 ft

TAF: EFHA 301137Z 3012/3015 33008KT 9999 BKN015 PROB40 TEMPO 3012/3015 BKN010

Orai ataskaitas ir orų prognozės (METAR, TAF).

turimą stotys yra geltonos ir raudonos taškus žemėlapyje.

Perkelti pele per norėdami pamatyti stoties vardą.

Tada spustelėkite, norėdami matyti oro stebėjimo ir prognozės.

Norėdami pakeisti žemėlapį: spustelėkite ant žalios mygtukų su juodo kryžiaus žemyn,; žalią mygtuką su brūkšneliu, jei norite nutolinti; arba žalių rodyklių gretimoms žemėlapius.


METAR-TAF: